createdAt,value
2023-03-29T00:10:47.006Z,23.61
2023-03-29T00:30:47.098Z,23.62
2023-03-29T00:50:47.104Z,23.62
2023-03-29T01:10:47.080Z,23.62
2023-03-29T01:30:47.086Z,23.62
2023-03-29T01:50:47.084Z,23.62
2023-03-29T02:10:46.320Z,23.62
2023-03-29T02:30:46.968Z,23.62
2023-03-29T02:50:47.140Z,23.62
2023-03-29T03:10:47.079Z,23.62
2023-03-29T03:50:47.055Z,23.62
2023-03-29T04:10:46.572Z,23.62
2023-03-29T04:30:46.947Z,23.62
2023-03-29T04:50:46.287Z,23.61
2023-03-29T05:10:47.071Z,23.62
2023-03-29T05:30:47.048Z,23.61
2023-03-29T05:50:47.055Z,23.61
2023-03-29T06:10:47.063Z,23.61
2023-03-29T06:30:47.073Z,23.61
2023-03-29T06:50:47.082Z,23.61
2023-03-29T07:10:47.049Z,23.61
2023-03-29T07:30:47.030Z,23.61
2023-03-29T07:50:46.919Z,23.61
2023-03-29T08:10:47.028Z,23.6
2023-03-29T08:30:46.926Z,23.6
2023-03-29T11:50:46.984Z,23.61
2023-03-29T12:10:46.973Z,23.61
2023-03-29T12:30:47.008Z,23.61
2023-03-29T12:50:46.978Z,23.61
2023-03-29T13:10:46.837Z,23.61
2023-03-29T13:30:46.960Z,23.61
2023-03-29T13:50:46.963Z,23.61
2023-03-29T14:10:46.941Z,23.61
2023-03-29T14:30:46.940Z,23.6
2023-03-29T14:50:46.946Z,23.6
2023-03-29T15:10:46.808Z,23.6
2023-03-29T15:30:54.357Z,23.59
2023-03-29T15:50:46.975Z,23.59
2023-03-29T16:10:46.146Z,23.59
2023-03-29T16:30:46.385Z,23.59
2023-03-29T16:50:46.934Z,23.58
2023-03-29T17:10:46.896Z,23.58
2023-03-29T17:30:46.442Z,23.58
2023-03-29T17:50:46.877Z,23.57
2023-03-29T18:10:46.898Z,23.57
2023-03-29T18:30:46.873Z,23.57
2023-03-29T18:50:46.876Z,23.57
2023-03-29T19:10:46.364Z,23.56
2023-03-29T19:30:46.918Z,23.56
2023-03-29T19:50:46.840Z,23.56
2023-03-29T20:10:46.847Z,23.55
2023-03-29T20:30:46.830Z,23.55
2023-03-29T20:50:46.814Z,23.54
2023-03-29T21:10:46.824Z,23.54
2023-03-29T21:30:46.803Z,23.54
2023-03-29T21:50:46.795Z,23.53
2023-03-29T22:10:46.794Z,23.53
2023-03-29T22:30:46.798Z,23.53
2023-03-29T22:50:46.664Z,23.52
2023-03-29T23:10:46.781Z,23.52
2023-03-29T23:30:46.241Z,23.51
2023-03-29T23:50:46.781Z,23.51
